Terminal Aerodrome Forecast
Issued by NWS Sioux Falls, SD

Home | Current Version | Previous Version | Text Only | Print | Product List | Glossary Off
Versions: 1 2 3 4 5 6 7 8 9 10 11 12 13 14 15 16 17 18 19 20 21 22 23 24 25 26 27 28 29 30 31 32 33 34 35 36 37 38 39 40 41 42 43

438
FTUS43 KFSD 031720
TAFSUX
TAF
KSUX 031720Z 0318/0418 17011KT P6SM OVC090
     FM032000 16012KT P6SM -RASN OVC045
     FM032100 16012KT 2SM -SN OVC030
      TEMPO 0321/0323 1 1/2SM -SN OVC020
     FM032300 16011KT 3SM -SN OVC015
     FM040100 15009KT P6SM OVC010
     FM041100 20007KT P6SM BKN050
     FM041400 24007KT P6SM SCT090=

USA.gov is the U.S. government's official web portal to all federal, state and local government web resources and services.